sensor_id;sensor_type;location;lat;lon;timestamp;pressure;altitude;pressure_sealevel;temperature;humidity
38452;BME280;24231;52.514;13.438;2023-09-19T00:00:17;100129.29;;;19.28;71.30
38452;BME280;24231;52.514;13.438;2023-09-19T00:02:51;100131.99;;;19.28;71.48
38452;BME280;24231;52.514;13.438;2023-09-19T00:05:19;100131.51;;;19.31;71.09
38452;BME280;24231;52.514;13.438;2023-09-19T00:07:45;100131.99;;;19.49;70.54
38452;BME280;24231;52.514;13.438;2023-09-19T00:10:13;100130.82;;;19.49;70.32
38452;BME280;24231;52.514;13.438;2023-09-19T00:12:43;100129.17;;;19.23;71.08
38452;BME280;24231;52.514;13.438;2023-09-19T00:15:10;100129.76;;;19.66;69.45
38452;BME280;24231;52.514;13.438;2023-09-19T00:17:37;100126.79;;;19.76;68.57
38452;BME280;24231;52.514;13.438;2023-09-19T00:20:04;100125.69;;;19.55;70.24
38452;BME280;24231;52.514;13.438;2023-09-19T00:22:32;100123.52;;;20.18;67.65
38452;BME280;24231;52.514;13.438;2023-09-19T00:24:59;100117.97;;;19.29;70.38
38452;BME280;24231;52.514;13.438;2023-09-19T00:27:26;100119.78;;;19.63;69.28
38452;BME280;24231;52.514;13.438;2023-09-19T00:29:53;100122.78;;;19.49;69.56
38452;BME280;24231;52.514;13.438;2023-09-19T00:32:20;100119.34;;;19.00;71.16
38452;BME280;24231;52.514;13.438;2023-09-19T00:34:47;100123.13;;;19.72;68.71
38452;BME280;24231;52.514;13.438;2023-09-19T00:37:14;100117.07;;;19.20;70.60
38452;BME280;24231;52.514;13.438;2023-09-19T00:39:41;100114.90;;;18.94;71.40
38452;BME280;24231;52.514;13.438;2023-09-19T00:42:08;100119.91;;;19.04;70.89
38452;BME280;24231;52.514;13.438;2023-09-19T00:44:35;100120.09;;;19.04;71.70
38452;BME280;24231;52.514;13.438;2023-09-19T00:47:02;100123.88;;;18.72;72.20
38452;BME280;24231;52.514;13.438;2023-09-19T00:49:29;100118.08;;;19.05;71.17
38452;BME280;24231;52.514;13.438;2023-09-19T00:51:56;100117.16;;;18.91;72.10
38452;BME280;24231;52.514;13.438;2023-09-19T00:54:24;100123.47;;;19.08;70.52
38452;BME280;24231;52.514;13.438;2023-09-19T00:56:52;100121.05;;;18.99;70.82
38452;BME280;24231;52.514;13.438;2023-09-19T00:59:19;100122.69;;;19.00;71.54
38452;BME280;24231;52.514;13.438;2023-09-19T01:01:45;100123.21;;;19.22;69.47
38452;BME280;24231;52.514;13.438;2023-09-19T01:04:12;100123.13;;;18.94;71.38
38452;BME280;24231;52.514;13.438;2023-09-19T01:06:40;100124.29;;;18.89;70.86
38452;BME280;24231;52.514;13.438;2023-09-19T01:09:07;100127.76;;;18.70;72.45
38452;BME280;24231;52.514;13.438;2023-09-19T01:11:40;100124.39;;;19.60;68.64
38452;BME280;24231;52.514;13.438;2023-09-19T01:14:19;100118.01;;;19.33;68.79
38452;BME280;24231;52.514;13.438;2023-09-19T01:16:53;100124.67;;;20.33;65.18
38452;BME280;24231;52.514;13.438;2023-09-19T01:19:43;100126.09;;;19.37;68.72
38452;BME280;24231;52.514;13.438;2023-09-19T01:22:21;100124.48;;;20.86;63.94
38452;BME280;24231;52.514;13.438;2023-09-19T01:25:10;100125.48;;;21.06;61.98
38452;BME280;24231;52.514;13.438;2023-09-19T01:28:06;100119.60;;;22.07;58.54
38452;BME280;24231;52.514;13.438;2023-09-19T01:30:40;100127.00;;;19.82;65.81
38452;BME280;24231;52.514;13.438;2023-09-19T01:33:09;100120.09;;;21.16;61.33
38452;BME280;24231;52.514;13.438;2023-09-19T01:35:37;100127.11;;;19.74;66.48
38452;BME280;24231;52.514;13.438;2023-09-19T01:38:05;100120.76;;;21.18;61.17
38452;BME280;24231;52.514;13.438;2023-09-19T01:40:32;100128.69;;;20.45;63.09
38452;BME280;24231;52.514;13.438;2023-09-19T01:43:11;100131.08;;;19.51;67.17
38452;BME280;24231;52.514;13.438;2023-09-19T01:45:50;100131.90;;;20.30;64.42
38452;BME280;24231;52.514;13.438;2023-09-19T01:48:31;100128.72;;;21.05;63.00
38452;BME280;24231;52.514;13.438;2023-09-19T01:51:05;100129.96;;;20.80;63.29
38452;BME280;24231;52.514;13.438;2023-09-19T01:53:35;100135.29;;;19.83;65.46
38452;BME280;24231;52.514;13.438;2023-09-19T01:56:06;100132.18;;;20.73;62.43
38452;BME280;24231;52.514;13.438;2023-09-19T01:58:44;100127.38;;;21.57;60.08
38452;BME280;24231;52.514;13.438;2023-09-19T02:01:17;100127.54;;;21.81;57.88
38452;BME280;24231;52.514;13.438;2023-09-19T02:03:47;100126.75;;;21.16;59.94
38452;BME280;24231;52.514;13.438;2023-09-19T02:06:16;100133.00;;;20.22;63.27
38452;BME280;24231;52.514;13.438;2023-09-19T02:08:43;100132.49;;;21.75;58.30
38452;BME280;24231;52.514;13.438;2023-09-19T02:11:11;100142.70;;;20.07;63.88
38452;BME280;24231;52.514;13.438;2023-09-19T02:13:38;100145.04;;;19.22;66.46
38452;BME280;24231;52.514;13.438;2023-09-19T02:16:05;100146.78;;;19.48;65.50
38452;BME280;24231;52.514;13.438;2023-09-19T02:18:32;100146.94;;;19.85;65.59
38452;BME280;24231;52.514;13.438;2023-09-19T02:20:59;100146.97;;;20.65;62.05
38452;BME280;24231;52.514;13.438;2023-09-19T02:23:26;100152.24;;;21.00;61.76
38452;BME280;24231;52.514;13.438;2023-09-19T02:25:53;100155.83;;;20.52;63.82
38452;BME280;24231;52.514;13.438;2023-09-19T02:28:21;100158.09;;;20.62;63.55
38452;BME280;24231;52.514;13.438;2023-09-19T02:30:58;100160.81;;;20.10;65.21
38452;BME280;24231;52.514;13.438;2023-09-19T02:33:25;100164.90;;;20.45;63.45
38452;BME280;24231;52.514;13.438;2023-09-19T02:36:03;100165.10;;;19.58;66.28
38452;BME280;24231;52.514;13.438;2023-09-19T02:38:30;100165.03;;;20.52;63.66
38452;BME280;24231;52.514;13.438;2023-09-19T02:40:57;100161.97;;;20.82;61.85
38452;BME280;24231;52.514;13.438;2023-09-19T02:43:24;100167.99;;;20.51;63.07
38452;BME280;24231;52.514;13.438;2023-09-19T02:45:51;100170.78;;;20.08;63.96
38452;BME280;24231;52.514;13.438;2023-09-19T02:48:18;100168.83;;;19.43;66.49
38452;BME280;24231;52.514;13.438;2023-09-19T02:50:45;100171.29;;;18.86;69.19
38452;BME280;24231;52.514;13.438;2023-09-19T02:53:12;100172.74;;;19.07;69.30
38452;BME280;24231;52.514;13.438;2023-09-19T02:55:40;100176.72;;;18.68;70.39
38452;BME280;24231;52.514;13.438;2023-09-19T02:58:08;100178.80;;;19.34;69.06
38452;BME280;24231;52.514;13.438;2023-09-19T03:00:35;100180.07;;;19.15;68.78
38452;BME280;24231;52.514;13.438;2023-09-19T03:03:02;100180.91;;;18.95;69.98
38452;BME280;24231;52.514;13.438;2023-09-19T03:05:30;100181.31;;;19.41;67.78
38452;BME280;24231;52.514;13.438;2023-09-19T03:07:57;100189.32;;;18.90;69.79
38452;BME280;24231;52.514;13.438;2023-09-19T03:10:25;100193.11;;;19.48;67.59
38452;BME280;24231;52.514;13.438;2023-09-19T03:12:52;100194.67;;;20.09;65.12
38452;BME280;24231;52.514;13.438;2023-09-19T03:15:19;100195.63;;;20.08;64.87
38452;BME280;24231;52.514;13.438;2023-09-19T03:17:47;100192.32;;;19.61;66.07
38452;BME280;24231;52.514;13.438;2023-09-19T03:20:15;100186.83;;;19.49;66.69
38452;BME280;24231;52.514;13.438;2023-09-19T03:22:42;100192.96;;;19.69;65.23
38452;BME280;24231;52.514;13.438;2023-09-19T03:25:09;100198.86;;;20.13;63.68
38452;BME280;24231;52.514;13.438;2023-09-19T03:27:36;100199.90;;;19.52;66.05
38452;BME280;24231;52.514;13.438;2023-09-19T03:30:04;100204.04;;;19.05;67.21
38452;BME280;24231;52.514;13.438;2023-09-19T03:32:32;100208.07;;;19.85;64.47
38452;BME280;24231;52.514;13.438;2023-09-19T03:34:59;100204.02;;;19.63;64.80
38452;BME280;24231;52.514;13.438;2023-09-19T03:37:26;100207.92;;;19.38;65.20
38452;BME280;24231;52.514;13.438;2023-09-19T03:39:53;100207.04;;;18.94;66.52
38452;BME280;24231;52.514;13.438;2023-09-19T03:42:19;100214.87;;;18.87;66.81
38452;BME280;24231;52.514;13.438;2023-09-19T03:44:46;100217.97;;;20.25;62.00
38452;BME280;24231;52.514;13.438;2023-09-19T03:47:13;100211.77;;;19.66;63.28
38452;BME280;24231;52.514;13.438;2023-09-19T03:49:40;100217.51;;;18.86;65.80
38452;BME280;24231;52.514;13.438;2023-09-19T03:52:07;100220.65;;;19.57;63.35
38452;BME280;24231;52.514;13.438;2023-09-19T03:54:34;100221.54;;;19.38;63.69
38452;BME280;24231;52.514;13.438;2023-09-19T03:57:01;100227.92;;;18.67;65.50
38452;BME280;24231;52.514;13.438;2023-09-19T03:59:28;100227.38;;;19.00;64.49
38452;BME280;24231;52.514;13.438;2023-09-19T04:01:55;100225.96;;;19.02;65.21
38452;BME280;24231;52.514;13.438;2023-09-19T04:04:22;100230.43;;;19.68;61.86
38452;BME280;24231;52.514;13.438;2023-09-19T04:06:49;100226.49;;;19.55;61.85
38452;BME280;24231;52.514;13.438;2023-09-19T04:09:17;100234.87;;;18.56;65.42
38452;BME280;24231;52.514;13.438;2023-09-19T04:11:44;100232.45;;;18.59;65.24
38452;BME280;24231;52.514;13.438;2023-09-19T04:14:11;100225.44;;;19.78;60.69
38452;BME280;24231;52.514;13.438;2023-09-19T04:16:38;100230.89;;;19.33;61.12
38452;BME280;24231;52.514;13.438;2023-09-19T04:19:05;100236.09;;;20.58;56.86
38452;BME280;24231;52.514;13.438;2023-09-19T04:21:32;100235.72;;;19.51;59.16
38452;BME280;24231;52.514;13.438;2023-09-19T04:23:59;100233.42;;;19.54;58.05
38452;BME280;24231;52.514;13.438;2023-09-19T04:26:26;100237.10;;;18.61;61.75
38452;BME280;24231;52.514;13.438;2023-09-19T04:28:53;100239.44;;;19.36;58.95
38452;BME280;24231;52.514;13.438;2023-09-19T04:31:20;100241.60;;;19.46;58.19
38452;BME280;24231;52.514;13.438;2023-09-19T04:33:47;100250.18;;;18.73;60.47
38452;BME280;24231;52.514;13.438;2023-09-19T04:36:24;100251.76;;;18.75;60.73
38452;BME280;24231;52.514;13.438;2023-09-19T04:38:51;100254.73;;;19.43;58.00
38452;BME280;24231;52.514;13.438;2023-09-19T04:41:18;100256.90;;;19.61;57.49
38452;BME280;24231;52.514;13.438;2023-09-19T04:43:45;100261.69;;;20.69;53.77
38452;BME280;24231;52.514;13.438;2023-09-19T04:46:12;100267.36;;;19.10;58.52
38452;BME280;24231;52.514;13.438;2023-09-19T04:48:39;100271.37;;;19.49;57.23
38452;BME280;24231;52.514;13.438;2023-09-19T04:51:06;100274.95;;;19.11;58.03
38452;BME280;24231;52.514;13.438;2023-09-19T04:53:33;100270.62;;;18.72;59.72
38452;BME280;24231;52.514;13.438;2023-09-19T04:56:00;100268.01;;;19.27;57.37
38452;BME280;24231;52.514;13.438;2023-09-19T04:58:27;100276.02;;;19.20;57.79
38452;BME280;24231;52.514;13.438;2023-09-19T05:00:54;100275.05;;;20.19;54.31
38452;BME280;24231;52.514;13.438;2023-09-19T05:03:21;100278.06;;;20.75;52.39
38452;BME280;24231;52.514;13.438;2023-09-19T05:05:48;100283.89;;;19.54;55.15
38452;BME280;24231;52.514;13.438;2023-09-19T05:08:15;100284.90;;;18.94;58.15
38452;BME280;24231;52.514;13.438;2023-09-19T05:10:42;100287.12;;;20.56;52.89
38452;BME280;24231;52.514;13.438;2023-09-19T05:13:09;100289.18;;;19.55;55.83
38452;BME280;24231;52.514;13.438;2023-09-19T05:15:35;100290.47;;;19.94;54.78
38452;BME280;24231;52.514;13.438;2023-09-19T05:18:03;100293.50;;;19.28;56.92
38452;BME280;24231;52.514;13.438;2023-09-19T05:20:30;100299.15;;;19.67;56.34
38452;BME280;24231;52.514;13.438;2023-09-19T05:22:58;100301.59;;;19.11;57.68
38452;BME280;24231;52.514;13.438;2023-09-19T05:25:26;100308.03;;;18.59;59.10
38452;BME280;24231;52.514;13.438;2023-09-19T05:27:53;100310.69;;;19.39;56.17
38452;BME280;24231;52.514;13.438;2023-09-19T05:30:21;100314.55;;;19.54;55.99
38452;BME280;24231;52.514;13.438;2023-09-19T05:32:48;100312.07;;;19.02;57.74
38452;BME280;24231;52.514;13.438;2023-09-19T05:35:25;100316.74;;;18.74;58.66
38452;BME280;24231;52.514;13.438;2023-09-19T05:37:53;100317.24;;;18.97;57.80
38452;BME280;24231;52.514;13.438;2023-09-19T05:40:21;100328.28;;;19.37;56.71
38452;BME280;24231;52.514;13.438;2023-09-19T05:42:49;100329.55;;;19.59;55.73
38452;BME280;24231;52.514;13.438;2023-09-19T05:45:59;100337.13;;;19.52;56.43
38452;BME280;24231;52.514;13.438;2023-09-19T05:48:27;100337.05;;;19.11;56.64
38452;BME280;24231;52.514;13.438;2023-09-19T05:50:54;100347.13;;;19.18;56.83
38452;BME280;24231;52.514;13.438;2023-09-19T05:53:22;100348.05;;;18.88;56.10
38452;BME280;24231;52.514;13.438;2023-09-19T05:55:49;100349.82;;;19.21;56.34
38452;BME280;24231;52.514;13.438;2023-09-19T05:58:35;100357.70;;;19.54;54.73
38452;BME280;24231;52.514;13.438;2023-09-19T06:01:02;100366.52;;;19.63;54.63
38452;BME280;24231;52.514;13.438;2023-09-19T06:03:29;100364.08;;;19.34;55.11
38452;BME280;24231;52.514;13.438;2023-09-19T06:05:56;100366.26;;;18.93;56.88
38452;BME280;24231;52.514;13.438;2023-09-19T06:08:23;100373.22;;;19.47;55.39
38452;BME280;24231;52.514;13.438;2023-09-19T06:10:50;100378.23;;;19.80;54.34
38452;BME280;24231;52.514;13.438;2023-09-19T06:13:17;100384.34;;;20.12;53.61
38452;BME280;24231;52.514;13.438;2023-09-19T06:15:43;100390.17;;;20.21;52.83
38452;BME280;24231;52.514;13.438;2023-09-19T06:18:12;100386.91;;;20.00;53.29
38452;BME280;24231;52.514;13.438;2023-09-19T06:20:39;100391.88;;;20.63;51.73
38452;BME280;24231;52.514;13.438;2023-09-19T06:23:06;100393.27;;;19.23;55.52
38452;BME280;24231;52.514;13.438;2023-09-19T06:25:32;100396.41;;;20.47;52.14
38452;BME280;24231;52.514;13.438;2023-09-19T06:27:59;100393.79;;;20.65;51.16
38452;BME280;24231;52.514;13.438;2023-09-19T06:30:28;100401.74;;;21.51;48.97
38452;BME280;24231;52.514;13.438;2023-09-19T06:32:56;100401.00;;;21.15;48.98
38452;BME280;24231;52.514;13.438;2023-09-19T06:35:38;100395.08;;;20.53;50.75
38452;BME280;24231;52.514;13.438;2023-09-19T06:38:05;100400.04;;;20.31;50.64
38452;BME280;24231;52.514;13.438;2023-09-19T06:40:34;100406.84;;;20.77;50.10
38452;BME280;24231;52.514;13.438;2023-09-19T06:43:01;100412.84;;;21.45;47.98
38452;BME280;24231;52.514;13.438;2023-09-19T06:45:29;100417.96;;;21.14;48.53
38452;BME280;24231;52.514;13.438;2023-09-19T06:47:56;100413.02;;;21.70;47.18
38452;BME280;24231;52.514;13.438;2023-09-19T06:50:24;100412.28;;;21.18;48.97
38452;BME280;24231;52.514;13.438;2023-09-19T06:52:52;100413.31;;;21.15;48.96
38452;BME280;24231;52.514;13.438;2023-09-19T06:55:22;100417.79;;;21.45;47.69
38452;BME280;24231;52.514;13.438;2023-09-19T06:57:57;100421.78;;;22.45;45.63
38452;BME280;24231;52.514;13.438;2023-09-19T07:00:24;100423.14;;;21.98;46.52
38452;BME280;24231;52.514;13.438;2023-09-19T07:02:58;100412.35;;;22.85;43.89
38452;BME280;24231;52.514;13.438;2023-09-19T07:05:25;100416.52;;;22.00;45.75
38452;BME280;24231;52.514;13.438;2023-09-19T07:07:59;100412.15;;;24.28;40.83
38452;BME280;24231;52.514;13.438;2023-09-19T07:10:26;100415.86;;;23.77;42.07
38452;BME280;24231;52.514;13.438;2023-09-19T07:12:56;100414.50;;;22.88;43.12
38452;BME280;24231;52.514;13.438;2023-09-19T07:15:23;100422.77;;;23.51;42.37
38452;BME280;24231;52.514;13.438;2023-09-19T07:17:51;100428.24;;;25.02;39.25
38452;BME280;24231;52.514;13.438;2023-09-19T07:20:19;100428.35;;;24.63;39.87
38452;BME280;24231;52.514;13.438;2023-09-19T07:22:46;100428.69;;;24.52;40.06
38452;BME280;24231;52.514;13.438;2023-09-19T07:25:13;100430.59;;;23.75;41.57
38452;BME280;24231;52.514;13.438;2023-09-19T07:27:40;100423.76;;;23.04;42.48
38452;BME280;24231;52.514;13.438;2023-09-19T07:30:09;100436.70;;;23.77;41.62
38452;BME280;24231;52.514;13.438;2023-09-19T07:32:36;100435.43;;;24.48;39.82
38452;BME280;24231;52.514;13.438;2023-09-19T07:35:05;100437.38;;;24.29;40.35
38452;BME280;24231;52.514;13.438;2023-09-19T07:37:32;100441.12;;;23.12;42.74
38452;BME280;24231;52.514;13.438;2023-09-19T07:40:06;100443.12;;;23.36;41.95
38452;BME280;24231;52.514;13.438;2023-09-19T07:42:34;100441.68;;;23.01;42.67
38452;BME280;24231;52.514;13.438;2023-09-19T07:45:01;100446.43;;;23.61;41.93
38452;BME280;24231;52.514;13.438;2023-09-19T07:47:29;100450.09;;;23.50;41.62
38452;BME280;24231;52.514;13.438;2023-09-19T07:49:56;100454.45;;;23.39;41.68
38452;BME280;24231;52.514;13.438;2023-09-19T07:52:23;100457.61;;;23.02;41.45
38452;BME280;24231;52.514;13.438;2023-09-19T07:54:50;100461.52;;;23.29;40.56
38452;BME280;24231;52.514;13.438;2023-09-19T07:57:17;100472.23;;;23.69;40.45
38452;BME280;24231;52.514;13.438;2023-09-19T07:59:44;100474.53;;;23.32;40.69
38452;BME280;24231;52.514;13.438;2023-09-19T08:02:10;100480.03;;;23.31;40.69
38452;BME280;24231;52.514;13.438;2023-09-19T08:04:37;100483.29;;;24.26;38.71
38452;BME280;24231;52.514;13.438;2023-09-19T08:07:04;100492.61;;;22.54;41.75
38452;BME280;24231;52.514;13.438;2023-09-19T08:09:32;100485.71;;;23.19;40.69
38452;BME280;24231;52.514;13.438;2023-09-19T08:11:59;100483.44;;;23.53;39.60
38452;BME280;24231;52.514;13.438;2023-09-19T08:14:26;100487.18;;;22.74;41.13
38452;BME280;24231;52.514;13.438;2023-09-19T08:16:57;100480.02;;;21.95;42.02
38452;BME280;24231;52.514;13.438;2023-09-19T08:19:24;100470.28;;;23.46;40.20
38452;BME280;24231;52.514;13.438;2023-09-19T08:21:52;100472.55;;;23.05;39.63
38452;BME280;24231;52.514;13.438;2023-09-19T08:24:18;100486.38;;;23.09;40.10
38452;BME280;24231;52.514;13.438;2023-09-19T08:26:45;100482.01;;;22.04;41.77
38452;BME280;24231;52.514;13.438;2023-09-19T08:29:12;100490.70;;;22.78;40.13
38452;BME280;24231;52.514;13.438;2023-09-19T08:31:39;100486.98;;;22.81;39.70
38452;BME280;24231;52.514;13.438;2023-09-19T08:34:06;100493.01;;;22.36;41.15
38452;BME280;24231;52.514;13.438;2023-09-19T08:36:33;100489.21;;;22.17;41.55
38452;BME280;24231;52.514;13.438;2023-09-19T08:39:00;100489.72;;;23.59;39.46
38452;BME280;24231;52.514;13.438;2023-09-19T08:41:27;100502.44;;;22.68;40.86
38452;BME280;24231;52.514;13.438;2023-09-19T08:43:54;100496.01;;;22.97;39.84
38452;BME280;24231;52.514;13.438;2023-09-19T08:46:24;100496.28;;;23.12;39.54
38452;BME280;24231;52.514;13.438;2023-09-19T08:49:03;100498.72;;;23.16;39.37
38452;BME280;24231;52.514;13.438;2023-09-19T08:51:39;100502.59;;;23.08;39.84
38452;BME280;24231;52.514;13.438;2023-09-19T08:54:08;100502.40;;;23.99;37.83
38452;BME280;24231;52.514;13.438;2023-09-19T08:56:36;100508.50;;;23.12;39.17
38452;BME280;24231;52.514;13.438;2023-09-19T08:59:03;100508.43;;;23.07;39.37
38452;BME280;24231;52.514;13.438;2023-09-19T09:01:32;100506.96;;;24.08;36.95
38452;BME280;24231;52.514;13.438;2023-09-19T09:04:10;100511.65;;;24.11;37.05
38452;BME280;24231;52.514;13.438;2023-09-19T09:06:38;100519.08;;;24.18;37.07
38452;BME280;24231;52.514;13.438;2023-09-19T09:09:06;100522.94;;;23.05;38.87
38452;BME280;24231;52.514;13.438;2023-09-19T09:11:33;100522.68;;;22.81;39.12
38452;BME280;24231;52.514;13.438;2023-09-19T09:14:00;100524.11;;;23.31;37.80
38452;BME280;24231;52.514;13.438;2023-09-19T09:16:30;100526.68;;;24.10;36.59
38452;BME280;24231;52.514;13.438;2023-09-19T09:18:57;100526.63;;;24.49;35.07
38452;BME280;24231;52.514;13.438;2023-09-19T09:21:25;100529.09;;;23.81;36.60
38452;BME280;24231;52.514;13.438;2023-09-19T09:23:53;100525.12;;;25.10;34.80
38452;BME280;24231;52.514;13.438;2023-09-19T09:26:41;100532.37;;;24.75;35.10
38452;BME280;24231;52.514;13.438;2023-09-19T09:29:08;100528.99;;;24.23;35.95
38452;BME280;24231;52.514;13.438;2023-09-19T09:31:34;100523.11;;;23.64;36.07
38452;BME280;24231;52.514;13.438;2023-09-19T09:34:01;100531.51;;;23.13;36.73
38452;BME280;24231;52.514;13.438;2023-09-19T09:36:37;100535.88;;;21.76;39.33
38452;BME280;24231;52.514;13.438;2023-09-19T09:39:05;100535.25;;;22.79;37.45
38452;BME280;24231;52.514;13.438;2023-09-19T09:41:36;100528.75;;;22.85;38.09
38452;BME280;24231;52.514;13.438;2023-09-19T09:44:13;100525.17;;;23.76;36.48
38452;BME280;24231;52.514;13.438;2023-09-19T09:46:43;100525.33;;;23.64;36.69
38452;BME280;24231;52.514;13.438;2023-09-19T09:49:10;100526.95;;;23.21;37.48
38452;BME280;24231;52.514;13.438;2023-09-19T09:51:37;100532.00;;;23.66;35.66
38452;BME280;24231;52.514;13.438;2023-09-19T09:54:10;100534.82;;;23.73;35.73
38452;BME280;24231;52.514;13.438;2023-09-19T09:56:52;100537.11;;;23.46;36.21
38452;BME280;24231;52.514;13.438;2023-09-19T09:59:19;100540.78;;;23.95;35.63
38452;BME280;24231;52.514;13.438;2023-09-19T10:01:47;100540.84;;;23.16;35.71
38452;BME280;24231;52.514;13.438;2023-09-19T10:04:27;100535.74;;;24.13;34.65
38452;BME280;24231;52.514;13.438;2023-09-19T10:06:55;100534.74;;;23.85;35.00
38452;BME280;24231;52.514;13.438;2023-09-19T10:09:23;100541.95;;;23.23;34.08
38452;BME280;24231;52.514;13.438;2023-09-19T10:12:05;100547.20;;;23.91;33.98
38452;BME280;24231;52.514;13.438;2023-09-19T10:14:37;100539.55;;;23.23;34.54
38452;BME280;24231;52.514;13.438;2023-09-19T10:17:06;100548.93;;;22.99;35.49
38452;BME280;24231;52.514;13.438;2023-09-19T10:19:46;100553.21;;;23.38;34.96
38452;BME280;24231;52.514;13.438;2023-09-19T10:22:21;100551.31;;;24.44;33.07
38452;BME280;24231;52.514;13.438;2023-09-19T10:24:49;100544.97;;;23.96;32.88
38452;BME280;24231;52.514;13.438;2023-09-19T10:27:17;100541.60;;;23.95;33.46
38452;BME280;24231;52.514;13.438;2023-09-19T10:29:44;100546.54;;;23.04;34.42
38452;BME280;24231;52.514;13.438;2023-09-19T10:32:14;100545.69;;;23.02;34.42
38452;BME280;24231;52.514;13.438;2023-09-19T10:34:42;100546.80;;;22.20;35.35
38452;BME280;24231;52.514;13.438;2023-09-19T10:37:12;100536.96;;;22.20;35.91
38452;BME280;24231;52.514;13.438;2023-09-19T10:39:40;100543.40;;;22.77;34.28
38452;BME280;24231;52.514;13.438;2023-09-19T10:42:11;100532.19;;;23.37;33.74
38452;BME280;24231;52.514;13.438;2023-09-19T10:44:41;100535.12;;;23.52;32.97
38452;BME280;24231;52.514;13.438;2023-09-19T10:47:10;100544.36;;;22.31;34.43
38452;BME280;24231;52.514;13.438;2023-09-19T10:49:43;100542.88;;;22.50;34.46
38452;BME280;24231;52.514;13.438;2023-09-19T10:52:11;100542.31;;;22.66;34.12
38452;BME280;24231;52.514;13.438;2023-09-19T10:54:45;100537.61;;;23.09;33.23
38452;BME280;24231;52.514;13.438;2023-09-19T10:57:19;100544.13;;;22.84;32.25
38452;BME280;24231;52.514;13.438;2023-09-19T11:00:02;100554.35;;;22.76;32.45
38452;BME280;24231;52.514;13.438;2023-09-19T11:02:29;100546.67;;;22.97;32.56
38452;BME280;24231;52.514;13.438;2023-09-19T11:05:11;100547.28;;;23.70;31.35
38452;BME280;24231;52.514;13.438;2023-09-19T11:07:57;100538.64;;;23.63;31.74
38452;BME280;24231;52.514;13.438;2023-09-19T11:10:44;100532.70;;;23.38;31.97
38452;BME280;24231;52.514;13.438;2023-09-19T11:13:30;100536.57;;;23.56;31.27
38452;BME280;24231;52.514;13.438;2023-09-19T11:16:05;100536.29;;;22.58;32.43
38452;BME280;24231;52.514;13.438;2023-09-19T11:19:04;100543.80;;;23.27;31.71
38452;BME280;24231;52.514;13.438;2023-09-19T11:21:52;100550.92;;;22.59;32.57
38452;BME280;24231;52.514;13.438;2023-09-19T11:24:34;100545.61;;;22.82;32.56
38452;BME280;24231;52.514;13.438;2023-09-19T11:27:11;100550.39;;;23.08;32.48
38452;BME280;24231;52.514;13.438;2023-09-19T11:29:39;100542.22;;;23.39;32.10
38452;BME280;24231;52.514;13.438;2023-09-19T11:32:07;100548.77;;;23.01;32.85
38452;BME280;24231;52.514;13.438;2023-09-19T11:34:43;100547.24;;;23.05;32.44
38452;BME280;24231;52.514;13.438;2023-09-19T11:38:16;100547.76;;;23.45;32.02
38452;BME280;24231;52.514;13.438;2023-09-19T11:40:45;100551.41;;;23.03;31.82
38452;BME280;24231;52.514;13.438;2023-09-19T11:43:29;100552.21;;;22.81;32.47
38452;BME280;24231;52.514;13.438;2023-09-19T11:46:12;100551.98;;;23.27;31.60
38452;BME280;24231;52.514;13.438;2023-09-19T11:48:40;100560.67;;;22.97;32.05
38452;BME280;24231;52.514;13.438;2023-09-19T11:51:24;100562.29;;;22.22;33.12
38452;BME280;24231;52.514;13.438;2023-09-19T11:53:53;100556.87;;;21.90;33.12
38452;BME280;24231;52.514;13.438;2023-09-19T11:56:21;100554.38;;;21.83;33.80
38452;BME280;24231;52.514;13.438;2023-09-19T11:58:50;100558.49;;;23.22;32.24
38452;BME280;24231;52.514;13.438;2023-09-19T12:01:30;100558.67;;;22.90;32.77
38452;BME280;24231;52.514;13.438;2023-09-19T12:04:00;100557.76;;;22.91;32.89
38452;BME280;24231;52.514;13.438;2023-09-19T12:06:29;100561.20;;;22.72;32.95
38452;BME280;24231;52.514;13.438;2023-09-19T12:08:56;100546.95;;;23.01;32.12
38452;BME280;24231;52.514;13.438;2023-09-19T12:11:27;100547.00;;;22.23;32.54
38452;BME280;24231;52.514;13.438;2023-09-19T12:13:54;100554.07;;;22.87;31.66
38452;BME280;24231;52.514;13.438;2023-09-19T12:16:22;100555.64;;;22.29;33.26
38452;BME280;24231;52.514;13.438;2023-09-19T12:18:50;100549.09;;;21.87;33.04
38452;BME280;24231;52.514;13.438;2023-09-19T12:21:26;100562.47;;;22.25;33.15
38452;BME280;24231;52.514;13.438;2023-09-19T12:24:12;100563.68;;;21.82;33.20
38452;BME280;24231;52.514;13.438;2023-09-19T12:26:41;100563.54;;;22.07;32.85
38452;BME280;24231;52.514;13.438;2023-09-19T12:29:17;100552.72;;;22.05;33.11
38452;BME280;24231;52.514;13.438;2023-09-19T12:31:51;100560.25;;;22.26;32.45
38452;BME280;24231;52.514;13.438;2023-09-19T12:34:21;100552.87;;;22.53;31.51
38452;BME280;24231;52.514;13.438;2023-09-19T12:37:07;100555.70;;;22.04;32.19
38452;BME280;24231;52.514;13.438;2023-09-19T12:39:34;100557.80;;;22.36;31.78
38452;BME280;24231;52.514;13.438;2023-09-19T12:42:02;100559.56;;;23.11;30.35
38452;BME280;24231;52.514;13.438;2023-09-19T12:44:30;100561.37;;;22.82;31.08
38452;BME280;24231;52.514;13.438;2023-09-19T12:46:57;100548.49;;;23.31;29.73
38452;BME280;24231;52.514;13.438;2023-09-19T12:49:25;100547.49;;;23.78;29.41
38452;BME280;24231;52.514;13.438;2023-09-19T12:51:55;100547.95;;;22.69;31.20
38452;BME280;24231;52.514;13.438;2023-09-19T12:54:22;100547.26;;;23.15;30.81